Time;durP1;ratioP1;P1;durP2;ratioP2;P2;SDS_P1;SDS_P2;PMS_P1;PMS_P2;Temp;Humidity;BMP_temperature;BMP_pressure;BME280_temperature;BME280_humidity;BME280_pressure;Samples;Min_cycle;Max_cycle;Signal;HPM_P1;HPM_P2
2023/01/28 00:01:24;;;;;;;0.77;0.77;;;;;;;1.20;100.00;98762.03;5072743;28;20206;-61
2023/01/28 00:03:51;;;;;;;4.73;0.73;;;;;;;1.25;100.00;98755.94;5072534;28;20211;-64
2023/01/28 00:06:19;;;;;;;0.83;0.83;;;;;;;1.32;100.00;98764.06;5072410;28;20206;-61
2023/01/28 00:08:48;;;;;;;0.30;0.30;;;;;;;1.30;100.00;98768.34;5072482;28;20215;-61
2023/01/28 00:11:15;;;;;;;0.30;0.30;;;;;;;1.29;100.00;98769.22;5072415;28;20234;-64
2023/01/28 00:13:42;;;;;;;1.97;1.10;;;;;;;1.34;100.00;98764.84;5072638;28;20218;-64
2023/01/28 00:16:09;;;;;;;0.73;0.60;;;;;;;1.38;100.00;98771.38;5072433;28;20191;-61
2023/01/28 00:18:37;;;;;;;0.67;0.67;;;;;;;1.32;100.00;98776.66;5072585;28;20218;-61
2023/01/28 00:21:05;;;;;;;0.10;0.10;;;;;;;1.32;100.00;98771.63;5072462;28;20195;-61
2023/01/28 00:23:34;;;;;;;0.27;0.27;;;;;;;1.33;100.00;98778.28;5072192;28;20198;-64
2023/01/28 00:26:05;;;;;;;0.30;0.30;;;;;;;1.29;100.00;98774.25;5072477;28;20620;-61
2023/01/28 00:28:32;;;;;;;0.30;0.30;;;;;;;1.27;100.00;98779.34;5072119;28;20194;-61
2023/01/28 00:31:05;;;;;;;1.63;1.33;;;;;;;1.11;100.00;98779.13;5072075;28;20673;-61
2023/01/28 00:33:32;;;;;;;0.23;0.23;;;;;;;1.02;100.00;98776.97;5071854;28;20205;-61
2023/01/28 00:35:59;;;;;;;1.63;0.43;;;;;;;1.10;100.00;98780.00;5072200;28;20191;-64
2023/01/28 00:38:26;;;;;;;2.53;0.80;;;;;;;1.16;100.00;98778.94;5071722;28;20360;-63
2023/01/28 00:40:53;;;;;;;0.33;0.33;;;;;;;0.97;100.00;98790.63;5071735;28;20194;-61
2023/01/28 00:43:22;;;;;;;1.50;0.43;;;;;;;1.06;100.00;98785.22;5071839;28;20199;-64
2023/01/28 00:45:49;;;;;;;2.27;0.40;;;;;;;0.57;100.00;98787.88;5071676;28;20201;-61
2023/01/28 00:48:16;;;;;;;1.40;1.03;;;;;;;0.62;100.00;98793.56;5071965;28;20194;-61
2023/01/28 00:50:43;;;;;;;0.93;0.50;;;;;;;0.67;100.00;98793.41;5072003;28;20581;-63
2023/01/28 00:53:09;;;;;;;0.50;0.50;;;;;;;0.77;100.00;98794.69;5071738;28;20732;-62
2023/01/28 00:55:37;;;;;;;0.40;0.40;;;;;;;0.96;100.00;98794.00;5071581;28;20225;-63
2023/01/28 00:58:03;;;;;;;0.33;0.33;;;;;;;1.03;100.00;98791.19;5071635;28;20208;-63
2023/01/28 01:00:32;;;;;;;0.50;0.47;;;;;;;1.12;100.00;98795.88;5071407;28;20616;-63
2023/01/28 01:02:59;;;;;;;0.63;0.63;;;;;;;1.17;100.00;98802.44;5071444;28;20210;-61
2023/01/28 01:05:28;;;;;;;0.20;0.20;;;;;;;1.08;100.00;98801.91;5071195;28;20214;-63
2023/01/28 01:07:55;;;;;;;1.73;0.63;;;;;;;1.13;100.00;98801.72;5071429;28;20202;-61
2023/01/28 01:10:22;;;;;;;1.80;0.73;;;;;;;1.21;100.00;98801.44;5071101;28;20214;-61
2023/01/28 01:12:50;;;;;;;0.47;0.47;;;;;;;1.21;100.00;98798.91;5070998;28;20230;-61
2023/01/28 01:15:18;;;;;;;0.83;0.73;;;;;;;1.18;100.00;98802.38;5071281;28;20218;-64
2023/01/28 01:17:48;;;;;;;0.90;0.90;;;;;;;1.21;100.00;98804.78;5071619;28;20210;-61
2023/01/28 01:20:18;;;;;;;0.53;0.53;;;;;;;1.14;100.00;98808.41;5071190;28;20233;-64
2023/01/28 01:22:45;;;;;;;0.50;0.33;;;;;;;1.23;100.00;98807.25;5071082;28;20576;-61
2023/01/28 01:25:13;;;;;;;0.90;0.90;;;;;;;1.27;100.00;98803.72;5070960;28;20214;-63
2023/01/28 01:27:40;;;;;;;0.23;0.23;;;;;;;1.29;100.00;98807.81;5071147;28;20222;-63
2023/01/28 01:30:09;;;;;;;0.73;0.73;;;;;;;1.34;100.00;98810.97;5070871;28;20210;-64
2023/01/28 01:32:36;;;;;;;0.30;0.30;;;;;;;1.34;100.00;98807.66;5071003;28;20226;-64
2023/01/28 01:35:06;;;;;;;0.10;0.10;;;;;;;1.38;100.00;98808.34;5070750;28;20210;-61
2023/01/28 01:37:34;;;;;;;0.30;0.30;;;;;;;1.37;100.00;98805.00;5070932;28;20245;-62
2023/01/28 01:40:03;;;;;;;0.20;0.20;;;;;;;1.36;100.00;98813.44;5070502;28;20222;-64
2023/01/28 01:42:30;;;;;;;0.40;0.40;;;;;;;1.11;100.00;98824.47;5070991;28;20562;-61
2023/01/28 01:45:00;;;;;;;0.10;0.10;;;;;;;1.07;100.00;98822.91;5070704;28;20215;-64
2023/01/28 01:47:33;;;;;;;0.57;0.57;;;;;;;1.10;100.00;98827.84;5070478;28;20206;-61
2023/01/28 01:50:04;;;;;;;0.73;0.73;;;;;;;1.17;100.00;98823.41;5070525;28;20223;-64
2023/01/28 01:52:35;;;;;;;0.20;0.20;;;;;;;1.26;100.00;98824.75;5069958;28;20230;-64
2023/01/28 01:55:06;;;;;;;0.10;0.10;;;;;;;1.32;100.00;98827.03;5070423;28;20711;-61
2023/01/28 01:57:36;;;;;;;0.83;0.83;;;;;;;1.36;100.00;98823.50;5070325;28;20198;-61
2023/01/28 02:00:06;;;;;;;1.00;0.93;;;;;;;1.30;100.00;98826.25;5070391;28;20214;-64
2023/01/28 02:02:39;;;;;;;0.43;0.43;;;;;;;1.36;100.00;98828.53;5070756;28;20241;-61
2023/01/28 02:05:07;;;;;;;0.40;0.40;;;;;;;1.34;100.00;98825.28;5070438;28;20229;-64
2023/01/28 02:07:37;;;;;;;0.63;0.23;;;;;;;1.38;100.00;98831.00;5069770;28;20201;-61
2023/01/28 02:10:07;;;;;;;0.70;0.70;;;;;;;1.35;100.00;98834.47;5070064;28;20222;-64
2023/01/28 02:12:36;;;;;;;0.77;0.77;;;;;;;1.36;100.00;98833.56;5070071;28;20234;-64
2023/01/28 02:15:07;;;;;;;0.33;0.33;;;;;;;1.37;100.00;98835.25;5070242;28;20218;-61
2023/01/28 02:17:35;;;;;;;0.43;0.43;;;;;;;1.35;100.00;98834.47;5070080;28;20199;-61
2023/01/28 02:20:06;;;;;;;0.30;0.30;;;;;;;1.36;100.00;98838.63;5069965;28;20614;-62
2023/01/28 02:23:05;;;;;;;0.43;0.43;;;;;;;1.43;100.00;98835.00;5070295;28;20659;-64
2023/01/28 02:25:56;;;;;;;0.33;0.33;;;;;;;1.45;100.00;98833.22;5066551;28;20223;-61
2023/01/28 02:28:34;;;;;;;0.40;0.40;;;;;;;1.41;100.00;98841.78;5070103;28;20202;-61
2023/01/28 02:31:10;;;;;;;1.10;0.43;;;;;;;1.38;100.00;98841.91;5069778;28;20229;-64
2023/01/28 02:33:42;;;;;;;0.27;0.27;;;;;;;1.38;100.00;98841.91;5069656;28;20230;-64
2023/01/28 02:36:17;;;;;;;1.57;0.80;;;;;;;1.31;100.00;98850.59;5069761;28;20198;-61
2023/01/28 02:38:48;;;;;;;0.47;0.47;;;;;;;1.30;100.00;98853.97;5069640;28;20218;-63
2023/01/28 02:41:21;;;;;;;0.50;0.50;;;;;;;1.32;100.00;98852.22;5069869;28;20202;-64
2023/01/28 02:43:50;;;;;;;0.23;0.23;;;;;;;1.31;100.00;98858.16;5069692;28;20226;-63
2023/01/28 02:49:10;;;;;;;0.50;0.50;;;;;;;1.44;100.00;98858.47;5069705;28;20225;-61
2023/01/28 02:52:12;;;;;;;1.77;0.93;;;;;;;1.37;100.00;98862.94;5069818;28;20202;-61
2023/01/28 02:54:44;;;;;;;0.73;0.73;;;;;;;1.37;100.00;98860.41;5056701;28;20218;-63
2023/01/28 02:57:22;;;;;;;0.90;0.90;;;;;;;1.41;100.00;98861.94;5069680;28;20716;-63
2023/01/28 03:00:01;;;;;;;2.17;2.00;;;;;;;1.54;100.00;98868.16;5069391;28;20218;-61
2023/01/28 03:02:35;;;;;;;0.57;0.57;;;;;;;1.59;100.00;98871.28;5069545;28;20534;-64
2023/01/28 03:05:07;;;;;;;0.60;0.60;;;;;;;1.52;100.00;98872.41;5073749;28;20226;-64
2023/01/28 03:07:37;;;;;;;0.47;0.47;;;;;;;1.45;100.00;98871.00;5073535;28;20660;-61
2023/01/28 03:10:06;;;;;;;1.33;1.23;;;;;;;1.44;100.00;98871.88;5073667;28;20615;-61
2023/01/28 03:37:50;;;;;;;1.00;0.90;;;;;;;1.23;100.00;98893.69;5073036;28;20237;-61
2023/01/28 03:40:18;;;;;;;0.63;0.63;;;;;;;1.20;100.00;98892.97;5072937;28;20268;-64
2023/01/28 03:42:45;;;;;;;1.80;0.63;;;;;;;1.19;100.00;98897.16;5073326;28;20624;-61
2023/01/28 03:45:12;;;;;;;1.23;0.93;;;;;;;1.27;100.00;98895.19;5072889;28;20219;-61
2023/01/28 03:47:42;;;;;;;0.87;0.87;;;;;;;1.24;100.00;98905.38;5072894;28;20621;-64
2023/01/28 03:50:10;;;;;;;0.70;0.70;;;;;;;1.25;100.00;98896.13;5072833;28;20309;-61
2023/01/28 03:52:37;;;;;;;2.70;1.20;;;;;;;1.28;100.00;98906.09;5072551;28;20722;-61
2023/01/28 03:55:12;;;;;;;0.77;0.77;;;;;;;1.26;100.00;98900.31;5072741;28;20739;-63
2023/01/28 03:57:39;;;;;;;0.40;0.40;;;;;;;1.15;100.00;98900.69;5072787;28;20205;-61
2023/01/28 04:00:09;;;;;;;0.97;0.97;;;;;;;1.12;100.00;98905.84;5072534;28;20754;-61
2023/01/28 04:02:38;;;;;;;1.27;1.17;;;;;;;1.07;100.00;98912.72;5072341;28;20426;-64
2023/01/28 04:05:11;;;;;;;0.33;0.33;;;;;;;1.14;100.00;98909.13;5072449;28;20372;-64
2023/01/28 04:07:38;;;;;;;0.63;0.63;;;;;;;1.09;100.00;98906.78;5072771;28;20609;-61
2023/01/28 04:10:08;;;;;;;0.90;0.90;;;;;;;1.13;100.00;98912.50;5072296;28;20214;-63
2023/01/28 04:12:36;;;;;;;1.50;0.60;;;;;;;1.10;100.00;98913.44;5072095;28;20749;-64
2023/01/28 04:15:14;;;;;;;0.77;0.77;;;;;;;1.11;100.00;98920.13;5071533;28;20606;-64
2023/01/28 04:17:43;;;;;;;0.50;0.50;;;;;;;1.07;100.00;98907.69;5072977;28;20218;-61
2023/01/28 04:20:13;;;;;;;1.13;1.03;;;;;;;1.13;100.00;98915.88;5072127;28;20229;-64
2023/01/28 04:22:39;;;;;;;0.53;0.53;;;;;;;1.16;100.00;98921.66;5072139;28;20213;-63
2023/01/28 04:25:07;;;;;;;0.23;0.23;;;;;;;1.19;100.00;98926.56;5072219;28;20222;-61
2023/01/28 04:27:34;;;;;;;0.80;0.77;;;;;;;1.21;100.00;98924.81;5072233;28;20202;-64
2023/01/28 04:30:01;;;;;;;0.30;0.30;;;;;;;1.26;100.00;98920.44;5072052;28;20231;-61
2023/01/28 04:32:28;;;;;;;1.70;0.83;;;;;;;1.34;100.00;98923.50;5071509;28;20234;-63
2023/01/28 04:34:54;;;;;;;0.77;0.77;;;;;;;1.18;100.00;98927.47;5071802;28;20226;-63
2023/01/28 04:37:23;;;;;;;1.10;0.90;;;;;;;1.23;100.00;98935.66;5072196;28;20587;-64
2023/01/28 04:39:49;;;;;;;0.63;0.63;;;;;;;1.21;100.00;98929.88;5071526;28;20219;-63
2023/01/28 04:42:16;;;;;;;0.20;0.20;;;;;;;1.24;100.00;98934.78;5071889;28;20205;-61
2023/01/28 04:44:43;;;;;;;1.80;0.70;;;;;;;1.22;100.00;98931.50;5072078;28;20225;-64
2023/01/28 04:47:10;;;;;;;1.73;0.60;;;;;;;1.21;100.00;98929.88;5071749;28;20211;-61
2023/01/28 04:49:37;;;;;;;0.47;0.47;;;;;;;1.11;100.00;98929.38;5071189;28;20223;-64
2023/01/28 04:52:04;;;;;;;0.80;0.80;;;;;;;0.87;100.00;98936.09;5071535;28;20203;-61
2023/01/28 04:54:32;;;;;;;0.90;0.90;;;;;;;0.97;100.00;98936.59;5071111;28;20249;-64
2023/01/28 04:56:59;;;;;;;1.17;0.83;;;;;;;0.65;100.00;98939.38;5071307;28;20203;-64
2023/01/28 04:59:26;;;;;;;1.70;1.60;;;;;;;0.61;100.00;98937.00;5071155;28;20229;-64
2023/01/28 05:01:52;;;;;;;0.40;0.40;;;;;;;0.27;100.00;98944.88;5071677;28;20202;-61
2023/01/28 05:04:19;;;;;;;1.23;0.70;;;;;;;0.06;100.00;98944.69;5070943;28;20222;-61
2023/01/28 05:06:46;;;;;;;1.73;1.63;;;;;;;-0.29;100.00;98941.56;5071415;28;20198;-61
2023/01/28 05:09:13;;;;;;;0.90;0.83;;;;;;;-0.34;100.00;98942.59;5071256;28;20215;-62
2023/01/28 05:11:41;;;;;;;0.70;0.70;;;;;;;-0.24;100.00;98944.75;5071461;28;20221;-64
2023/01/28 05:14:08;;;;;;;1.80;1.07;;;;;;;-0.53;100.00;98943.09;5071092;28;20238;-64
2023/01/28 05:16:35;;;;;;;3.47;1.50;;;;;;;-0.56;100.00;98947.41;5071058;28;20204;-61
2023/01/28 05:19:02;;;;;;;0.43;0.43;;;;;;;-0.26;100.00;98955.75;5071253;28;20214;-64
2023/01/28 05:21:29;;;;;;;1.33;0.50;;;;;;;-0.20;100.00;98955.53;5070845;28;20689;-63
2023/01/28 05:23:56;;;;;;;0.50;0.50;;;;;;;-0.43;100.00;98952.91;5070939;28;20223;-64
2023/01/28 05:26:23;;;;;;;0.50;0.50;;;;;;;-0.43;100.00;98943.69;5070169;28;20199;-61
2023/01/28 05:28:51;;;;;;;1.20;0.77;;;;;;;-0.33;100.00;98944.22;5070668;28;20704;-61
2023/01/28 05:31:18;;;;;;;0.47;0.47;;;;;;;-0.34;100.00;98948.41;5070734;28;20209;-64
2023/01/28 05:33:45;;;;;;;1.50;0.83;;;;;;;-0.24;100.00;98949.78;5070638;28;20246;-63
2023/01/28 05:36:11;;;;;;;0.37;0.37;;;;;;;-0.29;100.00;98950.78;5070855;28;20191;-61
2023/01/28 05:38:38;;;;;;;1.37;1.10;;;;;;;-0.22;100.00;98946.41;5070727;28;20233;-61
2023/01/28 05:41:05;;;;;;;0.20;0.20;;;;;;;-0.49;100.00;98946.38;5070438;28;20765;-61
2023/01/28 05:43:32;;;;;;;0.43;0.43;;;;;;;-0.32;100.00;98945.84;5070661;28;20369;-62
2023/01/28 05:46:00;;;;;;;0.43;0.43;;;;;;;-0.26;100.00;98946.50;5070312;28;20213;-64
2023/01/28 05:48:27;;;;;;;0.30;0.30;;;;;;;-0.25;100.00;98958.19;5070410;28;20695;-64
2023/01/28 05:50:54;;;;;;;0.33;0.33;;;;;;;-0.14;100.00;98954.53;5070373;28;20199;-64
2023/01/28 05:53:21;;;;;;;1.53;1.10;;;;;;;-0.49;100.00;98948.88;5070411;28;20706;-61
2023/01/28 05:55:48;;;;;;;0.70;0.70;;;;;;;-0.34;100.00;98955.13;5070119;28;20236;-63
2023/01/28 05:58:15;;;;;;;0.53;0.43;;;;;;;-0.59;100.00;98955.03;5070328;28;20203;-63
2023/01/28 06:00:42;;;;;;;0.40;0.40;;;;;;;-0.60;100.00;98953.41;5070222;28;20207;-61
2023/01/28 06:03:11;;;;;;;0.60;0.53;;;;;;;-0.53;100.00;98957.34;5070253;28;20203;-61
2023/01/28 06:05:38;;;;;;;0.73;0.73;;;;;;;-0.53;100.00;98957.34;5070074;28;20218;-64
2023/01/28 06:08:05;;;;;;;0.70;0.70;;;;;;;-0.47;100.00;98959.69;5070234;28;20615;-61
2023/01/28 06:10:32;;;;;;;0.43;0.43;;;;;;;-0.46;100.00;98963.88;5069956;28;20221;-64
2023/01/28 06:12:59;;;;;;;0.83;0.83;;;;;;;-0.51;100.00;98968.19;5069899;28;20233;-61
2023/01/28 06:15:26;;;;;;;0.80;0.47;;;;;;;-0.30;100.00;98974.25;5069822;28;20214;-61
2023/01/28 06:17:53;;;;;;;0.70;0.70;;;;;;;-0.11;100.00;98972.84;5069924;28;20202;-61
2023/01/28 06:20:21;;;;;;;0.53;0.53;;;;;;;-0.13;100.00;98976.28;5069776;28;20219;-61
2023/01/28 06:22:50;;;;;;;0.97;0.93;;;;;;;0.02;100.00;98974.97;5069881;28;20210;-64
2023/01/28 06:25:17;;;;;;;0.90;0.83;;;;;;;0.01;100.00;98979.19;5069797;28;20736;-61
2023/01/28 06:27:45;;;;;;;1.00;1.00;;;;;;;-0.08;100.00;98984.50;5069638;28;20214;-64
2023/01/28 06:30:12;;;;;;;0.17;0.17;;;;;;;-0.02;100.00;98991.84;5069624;28;20218;-61
2023/01/28 06:32:39;;;;;;;1.10;0.87;;;;;;;0.00;100.00;98987.59;5069781;28;20198;-63
2023/01/28 06:35:06;;;;;;;0.50;0.50;;;;;;;0.07;100.00;98986.53;5069507;28;20234;-64
2023/01/28 06:37:35;;;;;;;0.10;0.10;;;;;;;0.02;100.00;98992.56;5069551;28;20199;-63
2023/01/28 06:40:02;;;;;;;0.73;0.73;;;;;;;0.16;100.00;98993.78;5069546;28;20218;-64
2023/01/28 06:42:29;;;;;;;0.80;0.80;;;;;;;-0.03;100.00;98997.72;5069946;28;20206;-63
2023/01/28 06:44:55;;;;;;;1.13;1.10;;;;;;;-0.20;100.00;98992.38;5069575;28;20225;-64
2023/01/28 06:47:22;;;;;;;0.83;0.83;;;;;;;-0.19;100.00;98996.56;5069598;28;20202;-61
2023/01/28 06:49:50;;;;;;;0.97;0.97;;;;;;;0.02;100.00;99003.44;5069483;28;20214;-61
2023/01/28 06:52:17;;;;;;;0.83;0.83;;;;;;;-0.06;100.00;99002.84;5069428;28;20209;-61
2023/01/28 06:54:45;;;;;;;2.87;2.53;;;;;;;-0.33;100.00;99004.50;5069575;28;20238;-64
2023/01/28 06:57:12;;;;;;;3.37;2.40;;;;;;;-0.54;100.00;99008.47;5069547;28;20206;-64
2023/01/28 06:59:39;;;;;;;2.07;1.40;;;;;;;-0.48;100.00;99019.16;5069655;28;20218;-64
2023/01/28 07:02:06;;;;;;;0.93;0.90;;;;;;;-0.37;100.00;99013.00;5069355;28;20671;-64
2023/01/28 07:04:33;;;;;;;4.20;1.47;;;;;;;-0.52;100.00;99009.25;5069352;28;20222;-61
2023/01/28 07:06:59;;;;;;;0.53;0.53;;;;;;;-0.52;100.00;99014.28;5069389;28;20209;-64
2023/01/28 07:09:26;;;;;;;1.07;0.87;;;;;;;-0.32;100.00;99012.00;5068984;28;20221;-63
2023/01/28 07:11:54;;;;;;;1.10;1.00;;;;;;;-0.30;100.00;99020.31;5069839;28;20199;-61
2023/01/28 07:14:21;;;;;;;0.50;0.50;;;;;;;-0.31;100.00;99021.19;5069284;28;20245;-64
2023/01/28 07:16:48;;;;;;;1.30;1.20;;;;;;;-0.53;100.00;99023.47;5069149;28;20199;-63
2023/01/28 07:19:15;;;;;;;0.77;0.77;;;;;;;-0.54;100.00;99019.31;5069301;28;20221;-63
2023/01/28 07:21:42;;;;;;;0.87;0.87;;;;;;;-0.31;100.00;99018.66;5069378;28;20207;-64
2023/01/28 07:24:09;;;;;;;1.07;0.90;;;;;;;-0.47;100.00;99028.34;5069185;28;20218;-61
2023/01/28 07:26:36;;;;;;;0.60;0.60;;;;;;;-0.36;100.00;99029.72;5069619;28;20194;-63
2023/01/28 07:29:04;;;;;;;1.83;1.60;;;;;;;-0.51;100.00;99026.75;5069437;28;20230;-61
2023/01/28 07:31:31;;;;;;;1.43;1.33;;;;;;;-0.43;100.00;99036.59;5069273;28;20198;-61
2023/01/28 07:33:58;;;;;;;0.60;0.60;;;;;;;-0.33;100.00;99039.66;5068909;28;20242;-61
2023/01/28 07:36:25;;;;;;;2.03;1.83;;;;;;;-0.29;100.00;99037.03;5069107;28;20213;-61
2023/01/28 07:38:51;;;;;;;1.23;1.13;;;;;;;-0.27;100.00;99045.31;5069123;28;20698;-64
2023/01/28 07:41:18;;;;;;;2.00;1.90;;;;;;;-0.31;100.00;99041.28;5068988;28;20199;-61
2023/01/28 07:43:45;;;;;;;1.67;1.57;;;;;;;-0.33;100.00;99045.50;5069024;28;20215;-64
2023/01/28 07:46:13;;;;;;;3.53;2.00;;;;;;;-0.14;100.00;99045.00;5068693;28;20217;-64
2023/01/28 07:48:40;;;;;;;0.67;0.67;;;;;;;-0.06;100.00;99048.09;5069084;28;20226;-61
2023/01/28 07:51:07;;;;;;;1.03;0.93;;;;;;;-0.04;100.00;99043.84;5071751;28;20875;-64
2023/01/28 07:53:34;;;;;;;1.83;1.73;;;;;;;-0.17;100.00;99047.59;5072579;28;20245;-61
2023/01/28 07:56:01;;;;;;;0.87;0.87;;;;;;;-0.04;100.00;99053.91;5072532;28;20697;-61
2023/01/28 07:58:28;;;;;;;0.67;0.67;;;;;;;0.01;100.00;99058.78;5072374;28;20210;-64
2023/01/28 08:00:59;;;;;;;1.10;1.10;;;;;;;0.01;100.00;99058.78;5072439;28;20195;-64
2023/01/28 08:03:27;;;;;;;1.30;1.10;;;;;;;-0.18;100.00;99063.53;5072389;28;20194;-61
2023/01/28 08:05:56;;;;;;;0.93;0.93;;;;;;;0.01;100.00;99062.13;5072426;28;20245;-61
2023/01/28 08:08:24;;;;;;;0.57;0.57;;;;;;;-0.05;100.00;99065.66;5072593;28;20198;-61
2023/01/28 08:10:51;;;;;;;0.23;0.23;;;;;;;-0.06;100.00;99078.25;5072203;28;20203;-61
2023/01/28 08:13:19;;;;;;;0.93;0.93;;;;;;;-0.14;100.00;99078.47;5072235;28;20202;-64
2023/01/28 08:15:46;;;;;;;0.70;0.70;;;;;;;-0.07;100.00;99072.41;5072129;28;20199;-61
2023/01/28 08:18:16;;;;;;;0.33;0.33;;;;;;;0.24;100.00;99078.22;5072388;28;20202;-64
2023/01/28 08:20:46;;;;;;;0.50;0.50;;;;;;;0.03;100.00;99090.56;5072158;28;20215;-61
2023/01/28 08:23:14;;;;;;;1.00;0.90;;;;;;;0.09;100.00;99097.91;5072379;28;20201;-61
2023/01/28 08:25:41;;;;;;;0.97;0.97;;;;;;;-0.04;100.00;99086.56;5072122;28;20199;-63
2023/01/28 08:28:09;;;;;;;0.60;0.60;;;;;;;0.19;100.00;99104.31;5072230;28;20206;-64
2023/01/28 08:30:37;;;;;;;0.83;0.83;;;;;;;0.24;100.00;99109.22;5071838;28;20226;-61
2023/01/28 08:33:05;;;;;;;2.90;1.70;;;;;;;0.27;100.00;99110.81;5071850;28;20257;-61
2023/01/28 08:35:33;;;;;;;0.83;0.83;;;;;;;0.29;100.00;99114.09;5071688;28;20234;-61
2023/01/28 08:38:02;;;;;;;0.70;0.63;;;;;;;0.39;100.00;99111.25;5071804;28;20675;-61
2023/01/28 08:40:29;;;;;;;0.53;0.53;;;;;;;0.36;100.00;99126.44;5071366;28;20218;-61
2023/01/28 08:42:56;;;;;;;0.47;0.47;;;;;;;0.53;100.00;99117.56;5071881;28;20670;-62
2023/01/28 08:45:25;;;;;;;1.53;0.93;;;;;;;0.45;100.00;99127.84;5071518;28;20253;-64
2023/01/28 08:47:54;;;;;;;0.80;0.80;;;;;;;0.57;100.00;99124.97;5071549;28;20215;-63
2023/01/28 08:50:21;;;;;;;1.27;1.17;;;;;;;0.70;100.00;99134.63;5071561;28;20259;-64
2023/01/28 08:52:49;;;;;;;0.67;0.67;;;;;;;0.48;100.00;99125.25;5071491;28;20210;-63
2023/01/28 08:55:18;;;;;;;0.87;0.87;;;;;;;0.62;100.00;99130.66;5071399;28;20230;-61
2023/01/28 08:57:45;;;;;;;0.90;0.57;;;;;;;0.62;100.00;99132.38;5071375;28;20209;-61
2023/01/28 09:00:13;;;;;;;0.93;0.80;;;;;;;0.56;100.00;99120.81;5071496;28;20222;-61
2023/01/28 09:02:40;;;;;;;1.30;1.20;;;;;;;0.61;100.00;99121.50;5071606;28;20206;-64
2023/01/28 09:05:09;;;;;;;0.70;0.70;;;;;;;0.48;100.00;99120.22;5071338;28;20223;-64
2023/01/28 09:07:36;;;;;;;1.50;1.27;;;;;;;0.49;100.00;99121.84;5071428;28;20211;-61
2023/01/28 09:10:05;;;;;;;1.83;1.67;;;;;;;0.31;100.00;99118.19;5071031;28;20227;-63
2023/01/28 09:12:33;;;;;;;4.63;1.70;;;;;;;0.55;100.00;99115.81;5071029;28;20203;-64
2023/01/28 09:15:00;;;;;;;1.87;1.20;;;;;;;0.60;100.00;99127.38;5070860;28;20627;-63
2023/01/28 09:17:27;;;;;;;1.33;1.27;;;;;;;0.59;100.00;99120.72;5071327;28;20556;-63
2023/01/28 09:19:54;;;;;;;1.40;0.97;;;;;;;0.80;100.00;99126.75;5070792;28;20219;-61
2023/01/28 09:22:21;;;;;;;0.63;0.63;;;;;;;0.86;100.00;99125.75;5071241;28;20209;-61
2023/01/28 09:24:48;;;;;;;1.33;0.93;;;;;;;0.85;100.00;99122.41;5070780;28;20225;-63
2023/01/28 09:27:15;;;;;;;1.50;1.40;;;;;;;0.92;100.00;99120.50;5070852;28;20203;-63
2023/01/28 09:29:43;;;;;;;1.53;1.43;;;;;;;0.98;100.00;99120.31;5070800;28;20219;-63
2023/01/28 09:32:10;;;;;;;1.23;1.17;;;;;;;1.24;100.00;99114.41;5070968;28;20716;-63
2023/01/28 09:34:38;;;;;;;1.57;1.47;;;;;;;1.17;100.00;99112.16;5070554;28;20709;-61
2023/01/28 09:37:04;;;;;;;2.47;1.10;;;;;;;1.13;100.00;99109.75;5071121;28;20260;-61
2023/01/28 09:39:31;;;;;;;2.20;0.73;;;;;;;1.37;100.00;99112.31;5070642;28;20229;-61
2023/01/28 09:42:13;;;;;;;0.60;0.60;;;;;;;1.60;100.00;99109.00;5070746;28;20602;-63
2023/01/28 09:44:57;;;;;;;1.50;1.10;;;;;;;1.48;100.00;99109.41;5070435;28;20221;-61
2023/01/28 09:47:28;;;;;;;1.07;0.97;;;;;;;1.68;100.00;99108.69;5070434;28;20206;-61
2023/01/28 09:50:03;;;;;;;0.50;0.50;;;;;;;1.91;100.00;99108.69;5070283;28;20226;-63
2023/01/28 09:52:34;;;;;;;1.47;1.10;;;;;;;2.13;100.00;99100.34;5070762;28;20206;-61
2023/01/28 09:55:04;;;;;;;1.07;1.03;;;;;;;1.78;100.00;99097.44;5070289;28;20270;-61
2023/01/28 09:57:39;;;;;;;3.07;1.00;;;;;;;2.35;100.00;99101.16;5070151;28;20225;-61
2023/01/28 10:00:13;;;;;;;0.93;0.83;;;;;;;2.25;100.00;99097.34;5069812;28;20218;-61
2023/01/28 10:02:57;;;;;;;0.60;0.60;;;;;;;2.42;100.00;99099.25;5070557;28;20201;-63
2023/01/28 10:05:33;;;;;;;0.80;0.80;;;;;;;2.22;100.00;99098.28;5055542;28;20626;-61
2023/01/28 10:08:14;;;;;;;1.00;0.93;;;;;;;2.48;100.00;99094.75;5069998;28;20686;-61
2023/01/28 10:10:47;;;;;;;0.70;0.70;;;;;;;2.59;100.00;99094.34;5070258;28;20198;-59
2023/01/28 10:13:28;;;;;;;2.13;1.20;;;;;;;2.54;100.00;99100.47;5069797;28;20274;-61
2023/01/28 10:16:16;;;;;;;0.33;0.33;;;;;;;2.37;100.00;99106.16;5069789;28;20233;-62
2023/01/28 10:18:48;;;;;;;2.07;1.47;;;;;;;2.30;100.00;99103.06;5067784;28;20725;-64
2023/01/28 10:21:21;;;;;;;0.40;0.33;;;;;;;2.52;100.00;99104.75;5067804;28;20209;-61
2023/01/28 10:23:59;;;;;;;0.73;0.73;;;;;;;2.51;100.00;99098.06;5067691;28;20227;-63
2023/01/28 10:26:31;;;;;;;0.63;0.63;;;;;;;2.60;100.00;99102.75;5068112;28;20205;-61
2023/01/28 10:29:03;;;;;;;0.87;0.67;;;;;;;2.80;100.00;99099.44;5067740;28;20218;-65
2023/01/28 10:31:37;;;;;;;0.50;0.50;;;;;;;2.79;100.00;99097.75;5069376;28;20209;-64
2023/01/28 10:34:05;;;;;;;1.50;0.90;;;;;;;2.83;100.00;99100.13;5069877;28;20222;-63
2023/01/28 10:36:31;;;;;;;1.23;0.80;;;;;;;2.90;100.00;99095.63;5069398;28;20223;-61
2023/01/28 10:38:59;;;;;;;1.67;0.93;;;;;;;2.94;100.00;99102.22;5069406;28;20605;-64
2023/01/28 10:41:25;;;;;;;0.43;0.43;;;;;;;3.01;100.00;99097.72;5065736;28;20203;-61
2023/01/28 10:43:52;;;;;;;0.63;0.63;;;;;;;3.23;100.00;99092.59;5057609;28;20230;-62
2023/01/28 10:46:23;;;;;;;1.23;1.00;;;;;;;3.42;100.00;99092.66;5064624;28;20222;-59
2023/01/28 10:48:59;;;;;;;0.27;0.27;;;;;;;3.43;100.00;99096.81;5058591;28;20222;-59
2023/01/28 10:51:34;;;;;;;0.50;0.50;;;;;;;3.68;100.00;99097.38;5048489;28;20202;-64
2023/01/28 10:54:03;;;;;;;1.07;0.93;;;;;;;3.69;100.00;99093.97;5049972;28;20210;-64
2023/01/28 10:56:32;;;;;;;0.60;0.60;;;;;;;3.81;100.00;99093.44;5060927;28;20207;-61
2023/01/28 10:59:02;;;;;;;1.07;1.00;;;;;;;3.75;100.00;99101.31;5057908;28;20219;-61
2023/01/28 11:01:44;;;;;;;0.27;0.27;;;;;;;3.76;100.00;99097.88;5058481;28;20218;-61
2023/01/28 11:04:22;;;;;;;1.30;0.60;;;;;;;3.57;100.00;99095.31;5059858;28;20223;-61
2023/01/28 11:06:57;;;;;;;1.53;1.20;;;;;;;3.54;100.00;99092.91;5058328;28;20199;-64
2023/01/28 11:09:26;;;;;;;1.20;0.70;;;;;;;3.61;100.00;99093.50;5059839;28;20769;-61
2023/01/28 11:11:53;;;;;;;0.57;0.57;;;;;;;3.72;100.00;99093.81;5059965;28;20201;-63
2023/01/28 11:14:22;;;;;;;0.90;0.90;;;;;;;3.95;100.00;99097.03;5058339;28;20238;-63
2023/01/28 11:16:51;;;;;;;1.43;0.97;;;;;;;4.15;100.00;99098.69;5058347;28;20209;-64
2023/01/28 11:19:20;;;;;;;0.60;0.60;;;;;;;4.03;100.00;99095.81;5051544;28;20234;-64
2023/01/28 11:21:54;;;;;;;0.57;0.47;;;;;;;3.30;100.00;99102.38;5049382;28;20200;-63
2023/01/28 11:24:24;;;;;;;0.50;0.50;;;;;;;3.04;100.00;99095.06;5050911;28;20231;-63
2023/01/28 11:26:53;;;;;;;0.23;0.17;;;;;;;2.39;100.00;99100.19;5053396;28;20195;-64
2023/01/28 11:29:26;;;;;;;0.90;0.87;;;;;;;2.60;100.00;99092.66;5053064;28;20219;-64
2023/01/28 11:31:54;;;;;;;0.40;0.40;;;;;;;2.64;100.00;99102.53;5053448;28;20231;-61
2023/01/28 11:34:26;;;;;;;0.37;0.37;;;;;;;2.77;100.00;99105.41;5052945;28;20227;-61
2023/01/28 11:36:55;;;;;;;2.03;1.13;;;;;;;2.72;100.00;99104.78;5053343;28;20195;-63
2023/01/28 11:39:24;;;;;;;1.20;1.10;;;;;;;2.74;100.00;99104.72;5052892;28;20222;-63
2023/01/28 11:41:52;;;;;;;0.50;0.50;;;;;;;2.70;100.00;99104.81;5052709;28;20191;-64
2023/01/28 11:44:22;;;;;;;0.93;0.93;;;;;;;2.53;100.00;99099.66;5053052;28;20219;-64
2023/01/28 11:47:08;;;;;;;1.13;0.47;;;;;;;2.75;100.00;99102.13;5058923;28;20215;-61
2023/01/28 11:49:52;;;;;;;0.40;0.40;;;;;;;2.93;100.00;99110.66;5060586;28;20222;-64
2023/01/28 11:52:27;;;;;;;1.93;1.00;;;;;;;3.00;100.00;99098.63;5052753;28;20679;-61
2023/01/28 11:55:09;;;;;;;0.93;0.80;;;;;;;2.98;100.00;99102.91;5053179;28;20231;-60
2023/01/28 11:57:44;;;;;;;0.80;0.80;;;;;;;3.16;100.00;99099.63;5052925;28;20205;-61
2023/01/28 12:00:31;;;;;;;1.23;0.73;;;;;;;3.06;100.00;99096.66;5053294;28;20215;-64
2023/01/28 12:03:12;;;;;;;0.73;0.73;;;;;;;2.92;100.00;99099.75;5053479;28;20615;-60
2023/01/28 12:05:49;;;;;;;0.60;0.60;;;;;;;2.91;100.00;99103.16;5052879;28;20382;-65
2023/01/28 12:08:23;;;;;;;0.53;0.53;;;;;;;2.93;100.00;99096.31;5067881;28;20667;-60
2023/01/28 12:11:06;;;;;;;0.37;0.37;;;;;;;2.84;100.00;99096.69;5072797;28;20246;-60